Airfield :







YOU CAN JOIN US ON...

 
LOGIN :

Register | Disclaimer

   EN    FR    IT 

 









Legend :    VFR   Marginal VFR   IFR   Intensive IFR   Very Intensive IFR
Visi :
Ceiling :
>= 8 km
>= 3000ft
5 to 8 km
1000 to 3000 ft
1500m to 5 km
500 to 1000 ft
800 to 1500m
200 to 500 ft
< 800m
< 200 ft
Symbols :   Thunderstorms  Fog  Heavy snow  Heavy precipitations  Wind > 20 kt







- Airport Elevation : 1074 ft


KHIE - Mount Washington Regional

CURRENT METAR :
  • 200852Z AUTO 00000KT 10SM OVC027 16/14 A2972 RMK AO2 SLP062 T01560139 56012

EXPIRED METARs :
  • 200752Z AUTO 00000KT 10SM BKN028 OVC090 14/13 A2973 RMK AO2 SLP065 T01440133
  • 200740Z AUTO 00000KT 9SM BKN027 BKN100 14/13 A2973 RMK AO2 T01440133
  • 200652Z AUTO 00000KT 7SM FEW100 15/14 A2974 RMK AO2 SLP065 T01500139

TAF KHIE
Valid from the 20 at 06:00 until the 21 at 06:00 UTC


200520Z 2006/2106 00000KT P6SM BKN070 OVC100
FM201100 00000KT P6SM BKN015 OVC030
FM201600 00000KT 3SM -SHRA BR SCT007 OVC015
KZBW FIR / North America



MET'MAP, your aeronautical weather chart ! - Copyright ORBIFLY December 2007 - Disclaimer

ORBIFLY MET'MAP TEAM :

Programming & Development : Alexandra Zaïnal
Concept & Development : Baudouin d'Aumeries
Co-Development & Prog : Marc-Olivier Méhu
Technical & hardware support : Manuel Goepfert

Contact : metmap@orbifly.com




SOURCES & CREDITS :

   NOAA